sensor_id;sensor_type;location;lat;lon;timestamp;temperature;humidity
39695;DHT22;25367;-35.352;149.036;2023-02-28T00:01:50;25.90;50.60
39695;DHT22;25367;-35.352;149.036;2023-02-28T00:04:19;25.90;50.60
39695;DHT22;25367;-35.352;149.036;2023-02-28T00:06:48;25.90;50.60
39695;DHT22;25367;-35.352;149.036;2023-02-28T00:09:18;25.90;50.60
39695;DHT22;25367;-35.352;149.036;2023-02-28T00:11:49;25.90;50.60
39695;DHT22;25367;-35.352;149.036;2023-02-28T00:14:19;26.00;50.70
39695;DHT22;25367;-35.352;149.036;2023-02-28T00:16:48;26.00;51.30
39695;DHT22;25367;-35.352;149.036;2023-02-28T00:19:17;26.00;50.70
39695;DHT22;25367;-35.352;149.036;2023-02-28T00:21:47;26.00;50.70
39695;DHT22;25367;-35.352;149.036;2023-02-28T00:24:16;26.00;50.70
39695;DHT22;25367;-35.352;149.036;2023-02-28T00:26:46;26.00;50.70
39695;DHT22;25367;-35.352;149.036;2023-02-28T00:29:18;26.00;50.70
39695;DHT22;25367;-35.352;149.036;2023-02-28T00:31:48;26.10;50.70
39695;DHT22;25367;-35.352;149.036;2023-02-28T00:34:17;26.10;50.70
39695;DHT22;25367;-35.352;149.036;2023-02-28T00:36:47;26.10;50.70
39695;DHT22;25367;-35.352;149.036;2023-02-28T00:39:16;26.10;50.70
39695;DHT22;25367;-35.352;149.036;2023-02-28T00:41:46;26.10;50.70
39695;DHT22;25367;-35.352;149.036;2023-02-28T00:44:18;26.10;50.70
39695;DHT22;25367;-35.352;149.036;2023-02-28T00:46:47;26.10;50.60
39695;DHT22;25367;-35.352;149.036;2023-02-28T00:49:17;26.20;50.70
39695;DHT22;25367;-35.352;149.036;2023-02-28T00:51:46;26.10;50.60
39695;DHT22;25367;-35.352;149.036;2023-02-28T00:54:16;26.20;50.70
39695;DHT22;25367;-35.352;149.036;2023-02-28T00:56:45;26.20;50.80
39695;DHT22;25367;-35.352;149.036;2023-02-28T00:59:17;26.20;51.40
39695;DHT22;25367;-35.352;149.036;2023-02-28T01:01:47;26.30;50.90
39695;DHT22;25367;-35.352;149.036;2023-02-28T01:04:17;26.20;50.80
39695;DHT22;25367;-35.352;149.036;2023-02-28T01:06:47;26.30;50.90
39695;DHT22;25367;-35.352;149.036;2023-02-28T01:09:17;26.30;50.90
39695;DHT22;25367;-35.352;149.036;2023-02-28T01:11:46;26.30;50.90
39695;DHT22;25367;-35.352;149.036;2023-02-28T01:14:18;26.30;50.90
39695;DHT22;25367;-35.352;149.036;2023-02-28T01:16:48;26.40;50.90
39695;DHT22;25367;-35.352;149.036;2023-02-28T01:19:18;26.40;50.90
39695;DHT22;25367;-35.352;149.036;2023-02-28T01:21:48;26.40;50.90
39695;DHT22;25367;-35.352;149.036;2023-02-28T01:24:18;26.40;51.00
39695;DHT22;25367;-35.352;149.036;2023-02-28T01:26:47;26.40;51.00
39695;DHT22;25367;-35.352;149.036;2023-02-28T01:29:20;26.50;51.00
39695;DHT22;25367;-35.352;149.036;2023-02-28T01:31:49;26.50;51.00
39695;DHT22;25367;-35.352;149.036;2023-02-28T01:34:19;26.50;50.90
39695;DHT22;25367;-35.352;149.036;2023-02-28T01:36:48;26.50;50.90
39695;DHT22;25367;-35.352;149.036;2023-02-28T01:39:18;26.50;51.00
39695;DHT22;25367;-35.352;149.036;2023-02-28T01:41:47;26.50;50.90
39695;DHT22;25367;-35.352;149.036;2023-02-28T01:47:28;26.60;50.60
39695;DHT22;25367;-35.352;149.036;2023-02-28T01:50:00;26.70;51.10
39695;DHT22;25367;-35.352;149.036;2023-02-28T01:52:33;26.60;51.00
39695;DHT22;25367;-35.352;149.036;2023-02-28T01:55:04;26.70;51.00
39695;DHT22;25367;-35.352;149.036;2023-02-28T01:57:36;26.60;50.90
39695;DHT22;25367;-35.352;149.036;2023-02-28T02:00:09;26.70;51.00
39695;DHT22;25367;-35.352;149.036;2023-02-28T02:02:45;26.70;51.00
39695;DHT22;25367;-35.352;149.036;2023-02-28T02:05:18;26.70;50.90
39695;DHT22;25367;-35.352;149.036;2023-02-28T02:07:49;26.70;50.90
39695;DHT22;25367;-35.352;149.036;2023-02-28T02:10:21;26.80;51.00
39695;DHT22;25367;-35.352;149.036;2023-02-28T02:15:43;26.80;50.80
39695;DHT22;25367;-35.352;149.036;2023-02-28T02:18:27;26.80;50.50
39695;DHT22;25367;-35.352;149.036;2023-02-28T02:21:15;26.80;50.90
39695;DHT22;25367;-35.352;149.036;2023-02-28T02:27:27;26.80;50.70
39695;DHT22;25367;-35.352;149.036;2023-02-28T02:36:08;26.90;50.70
39695;DHT22;25367;-35.352;149.036;2023-02-28T02:38:47;26.90;51.50
39695;DHT22;25367;-35.352;149.036;2023-02-28T02:41:22;26.90;50.90
39695;DHT22;25367;-35.352;149.036;2023-02-28T02:43:56;26.90;50.80
39695;DHT22;25367;-35.352;149.036;2023-02-28T02:46:30;27.00;50.90
39695;DHT22;25367;-35.352;149.036;2023-02-28T02:49:04;27.00;50.80
39695;DHT22;25367;-35.352;149.036;2023-02-28T02:51:39;27.00;50.80
39695;DHT22;25367;-35.352;149.036;2023-02-28T02:54:13;27.00;50.80
39695;DHT22;25367;-35.352;149.036;2023-02-28T02:56:42;27.10;50.80
39695;DHT22;25367;-35.352;149.036;2023-02-28T02:59:15;27.00;50.40
39695;DHT22;25367;-35.352;149.036;2023-02-28T03:01:45;27.00;50.90
39695;DHT22;25367;-35.352;149.036;2023-02-28T03:04:18;27.00;50.80
39695;DHT22;25367;-35.352;149.036;2023-02-28T03:06:51;27.10;50.80
39695;DHT22;25367;-35.352;149.036;2023-02-28T03:09:21;27.10;50.80
39695;DHT22;25367;-35.352;149.036;2023-02-28T03:11:52;27.20;51.10
39695;DHT22;25367;-35.352;149.036;2023-02-28T03:14:39;27.20;50.80
39695;DHT22;25367;-35.352;149.036;2023-02-28T03:17:29;27.20;50.60
39695;DHT22;25367;-35.352;149.036;2023-02-28T03:20:16;27.20;50.60
39695;DHT22;25367;-35.352;149.036;2023-02-28T03:22:57;27.20;50.50
39695;DHT22;25367;-35.352;149.036;2023-02-28T03:25:34;27.20;50.70
39695;DHT22;25367;-35.352;149.036;2023-02-28T03:28:11;27.20;50.70
39695;DHT22;25367;-35.352;149.036;2023-02-28T03:30:49;27.20;50.70
39695;DHT22;25367;-35.352;149.036;2023-02-28T03:33:21;27.30;50.70
39695;DHT22;25367;-35.352;149.036;2023-02-28T03:35:54;27.30;50.70
39695;DHT22;25367;-35.352;149.036;2023-02-28T03:38:33;27.30;51.30
39695;DHT22;25367;-35.352;149.036;2023-02-28T03:41:07;27.30;50.60
39695;DHT22;25367;-35.352;149.036;2023-02-28T03:43:41;27.40;50.70
39695;DHT22;25367;-35.352;149.036;2023-02-28T03:46:14;27.40;50.70
39695;DHT22;25367;-35.352;149.036;2023-02-28T03:48:48;27.40;50.70
39695;DHT22;25367;-35.352;149.036;2023-02-28T03:51:22;27.40;50.70
39695;DHT22;25367;-35.352;149.036;2023-02-28T03:53:56;27.40;50.60
39695;DHT22;25367;-35.352;149.036;2023-02-28T03:56:30;27.50;50.70
39695;DHT22;25367;-35.352;149.036;2023-02-28T03:59:04;27.50;50.70
39695;DHT22;25367;-35.352;149.036;2023-02-28T04:01:38;27.50;50.70
39695;DHT22;25367;-35.352;149.036;2023-02-28T04:04:08;27.50;50.70
39695;DHT22;25367;-35.352;149.036;2023-02-28T04:06:39;27.50;50.60
39695;DHT22;25367;-35.352;149.036;2023-02-28T04:09:12;27.50;50.60
39695;DHT22;25367;-35.352;149.036;2023-02-28T04:11:42;27.60;50.60
39695;DHT22;25367;-35.352;149.036;2023-02-28T04:14:12;27.60;50.70
39695;DHT22;25367;-35.352;149.036;2023-02-28T04:16:42;27.60;50.70
39695;DHT22;25367;-35.352;149.036;2023-02-28T04:19:13;27.60;50.60
39695;DHT22;25367;-35.352;149.036;2023-02-28T04:21:43;27.60;50.60
39695;DHT22;25367;-35.352;149.036;2023-02-28T04:24:16;27.60;50.60
39695;DHT22;25367;-35.352;149.036;2023-02-28T04:26:47;27.70;50.60
39695;DHT22;25367;-35.352;149.036;2023-02-28T04:29:20;27.70;50.60
39695;DHT22;25367;-35.352;149.036;2023-02-28T04:31:49;27.70;50.60
39695;DHT22;25367;-35.352;149.036;2023-02-28T04:34:19;27.70;50.60
39695;DHT22;25367;-35.352;149.036;2023-02-28T04:36:48;27.70;50.60
39695;DHT22;25367;-35.352;149.036;2023-02-28T04:39:20;27.80;50.60
39695;DHT22;25367;-35.352;149.036;2023-02-28T04:41:50;27.80;50.60
39695;DHT22;25367;-35.352;149.036;2023-02-28T04:44:19;27.80;50.60
39695;DHT22;25367;-35.352;149.036;2023-02-28T04:46:49;27.80;50.50
39695;DHT22;25367;-35.352;149.036;2023-02-28T04:49:18;27.80;50.50
39695;DHT22;25367;-35.352;149.036;2023-02-28T04:51:48;27.90;50.60
39695;DHT22;25367;-35.352;149.036;2023-02-28T04:54:20;27.80;50.50
39695;DHT22;25367;-35.352;149.036;2023-02-28T04:56:50;27.90;50.60
39695;DHT22;25367;-35.352;149.036;2023-02-28T04:59:20;27.90;50.50
39695;DHT22;25367;-35.352;149.036;2023-02-28T05:01:50;27.90;50.60
39695;DHT22;25367;-35.352;149.036;2023-02-28T05:04:19;27.90;50.50
39695;DHT22;25367;-35.352;149.036;2023-02-28T05:06:48;27.90;50.50
39695;DHT22;25367;-35.352;149.036;2023-02-28T05:09:21;28.00;50.50
39695;DHT22;25367;-35.352;149.036;2023-02-28T05:11:50;27.90;50.40
39695;DHT22;25367;-35.352;149.036;2023-02-28T05:14:20;28.00;50.50
39695;DHT22;25367;-35.352;149.036;2023-02-28T05:16:49;28.00;50.50
39695;DHT22;25367;-35.352;149.036;2023-02-28T05:19:19;28.00;50.50
39695;DHT22;25367;-35.352;149.036;2023-02-28T05:21:53;28.00;50.40
39695;DHT22;25367;-35.352;149.036;2023-02-28T05:24:26;28.10;50.40
39695;DHT22;25367;-35.352;149.036;2023-02-28T05:26:55;28.10;50.40
39695;DHT22;25367;-35.352;149.036;2023-02-28T05:29:25;28.10;50.40
39695;DHT22;25367;-35.352;149.036;2023-02-28T05:31:54;28.10;50.40
39695;DHT22;25367;-35.352;149.036;2023-02-28T05:34:24;28.10;50.40
39695;DHT22;25367;-35.352;149.036;2023-02-28T05:36:53;28.20;50.50
39695;DHT22;25367;-35.352;149.036;2023-02-28T05:39:26;28.20;50.40
39695;DHT22;25367;-35.352;149.036;2023-02-28T05:41:54;28.20;50.40
39695;DHT22;25367;-35.352;149.036;2023-02-28T05:44:23;28.20;50.30
39695;DHT22;25367;-35.352;149.036;2023-02-28T05:46:53;28.20;50.90
39695;DHT22;25367;-35.352;149.036;2023-02-28T05:49:22;28.20;50.80
39695;DHT22;25367;-35.352;149.036;2023-02-28T05:51:52;28.20;51.00
39695;DHT22;25367;-35.352;149.036;2023-02-28T05:54:23;28.20;51.20
39695;DHT22;25367;-35.352;149.036;2023-02-28T05:56:53;28.30;51.20
39695;DHT22;25367;-35.352;149.036;2023-02-28T05:59:22;28.30;51.30
39695;DHT22;25367;-35.352;149.036;2023-02-28T06:01:52;28.30;51.20
39695;DHT22;25367;-35.352;149.036;2023-02-28T06:04:22;28.40;51.30
39695;DHT22;25367;-35.352;149.036;2023-02-28T06:06:51;28.40;51.40
39695;DHT22;25367;-35.352;149.036;2023-02-28T06:09:21;28.40;51.60
39695;DHT22;25367;-35.352;149.036;2023-02-28T06:11:52;28.50;51.60
39695;DHT22;25367;-35.352;149.036;2023-02-28T06:14:22;28.50;51.70
39695;DHT22;25367;-35.352;149.036;2023-02-28T18:15:45;24.30;53.30
39695;DHT22;25367;-35.352;149.036;2023-02-28T18:18:14;24.30;55.10
39695;DHT22;25367;-35.352;149.036;2023-02-28T18:20:44;24.50;55.10
39695;DHT22;25367;-35.352;149.036;2023-02-28T18:23:13;24.70;54.80
39695;DHT22;25367;-35.352;149.036;2023-02-28T18:25:42;25.00;54.50
39695;DHT22;25367;-35.352;149.036;2023-02-28T18:28:12;25.10;54.20
39695;DHT22;25367;-35.352;149.036;2023-02-28T18:30:43;25.30;54.00
39695;DHT22;25367;-35.352;149.036;2023-02-28T18:33:13;25.50;53.70
39695;DHT22;25367;-35.352;149.036;2023-02-28T18:35:42;25.70;53.70
39695;DHT22;25367;-35.352;149.036;2023-02-28T18:38:13;25.80;53.40
39695;DHT22;25367;-35.352;149.036;2023-02-28T18:40:48;25.90;53.20
39695;DHT22;25367;-35.352;149.036;2023-02-28T18:43:19;26.10;53.00
39695;DHT22;25367;-35.352;149.036;2023-02-28T18:45:51;26.10;52.80
39695;DHT22;25367;-35.352;149.036;2023-02-28T18:48:20;26.30;52.70
39695;DHT22;25367;-35.352;149.036;2023-02-28T18:50:50;26.40;52.50
39695;DHT22;25367;-35.352;149.036;2023-02-28T18:53:20;26.40;52.30
39695;DHT22;25367;-35.352;149.036;2023-02-28T18:55:50;26.50;52.20
39695;DHT22;25367;-35.352;149.036;2023-02-28T18:58:19;26.60;52.00
39695;DHT22;25367;-35.352;149.036;2023-02-28T19:00:50;26.70;52.00
39695;DHT22;25367;-35.352;149.036;2023-02-28T19:03:20;26.70;51.80
39695;DHT22;25367;-35.352;149.036;2023-02-28T19:05:53;26.70;51.60
39695;DHT22;25367;-35.352;149.036;2023-02-28T19:08:22;26.80;51.90
39695;DHT22;25367;-35.352;149.036;2023-02-28T19:10:52;26.80;51.40
39695;DHT22;25367;-35.352;149.036;2023-02-28T19:13:22;26.90;51.30
39695;DHT22;25367;-35.352;149.036;2023-02-28T19:16:01;27.00;51.20
39695;DHT22;25367;-35.352;149.036;2023-02-28T19:18:31;27.00;51.00
39695;DHT22;25367;-35.352;149.036;2023-02-28T19:21:00;27.10;51.00
39695;DHT22;25367;-35.352;149.036;2023-02-28T19:23:32;27.10;50.90
39695;DHT22;25367;-35.352;149.036;2023-02-28T19:26:05;27.10;50.80
39695;DHT22;25367;-35.352;149.036;2023-02-28T19:28:35;27.20;50.80
39695;DHT22;25367;-35.352;149.036;2023-02-28T19:31:12;27.20;50.80
39695;DHT22;25367;-35.352;149.036;2023-02-28T19:33:41;27.20;50.60
39695;DHT22;25367;-35.352;149.036;2023-02-28T19:36:11;27.20;50.50
39695;DHT22;25367;-35.352;149.036;2023-02-28T19:38:42;27.20;50.40
39695;DHT22;25367;-35.352;149.036;2023-02-28T19:41:12;27.30;50.50
39695;DHT22;25367;-35.352;149.036;2023-02-28T19:43:42;27.30;50.40
39695;DHT22;25367;-35.352;149.036;2023-02-28T19:46:13;27.20;50.30
39695;DHT22;25367;-35.352;149.036;2023-02-28T19:48:43;27.20;50.20
39695;DHT22;25367;-35.352;149.036;2023-02-28T19:51:13;27.20;50.30
39695;DHT22;25367;-35.352;149.036;2023-02-28T19:53:43;27.20;50.20
39695;DHT22;25367;-35.352;149.036;2023-02-28T19:56:12;27.20;50.30
39695;DHT22;25367;-35.352;149.036;2023-02-28T19:58:42;27.20;50.20
39695;DHT22;25367;-35.352;149.036;2023-02-28T20:01:14;27.20;50.10
39695;DHT22;25367;-35.352;149.036;2023-02-28T20:03:47;27.20;50.10
39695;DHT22;25367;-35.352;149.036;2023-02-28T20:06:16;27.20;50.20
39695;DHT22;25367;-35.352;149.036;2023-02-28T20:08:45;27.10;50.20
39695;DHT22;25367;-35.352;149.036;2023-02-28T20:11:15;27.10;50.30
39695;DHT22;25367;-35.352;149.036;2023-02-28T20:13:45;27.10;50.20
39695;DHT22;25367;-35.352;149.036;2023-02-28T20:16:16;27.10;50.20
39695;DHT22;25367;-35.352;149.036;2023-02-28T20:18:49;27.10;50.10
39695;DHT22;25367;-35.352;149.036;2023-02-28T20:21:19;27.10;50.10
39695;DHT22;25367;-35.352;149.036;2023-02-28T20:23:49;27.10;50.20
39695;DHT22;25367;-35.352;149.036;2023-02-28T20:26:18;27.00;50.00
39695;DHT22;25367;-35.352;149.036;2023-02-28T20:28:48;27.00;50.00
39695;DHT22;25367;-35.352;149.036;2023-02-28T20:31:21;27.00;50.10
39695;DHT22;25367;-35.352;149.036;2023-02-28T20:33:52;27.00;50.20
39695;DHT22;25367;-35.352;149.036;2023-02-28T20:36:21;27.00;50.10
39695;DHT22;25367;-35.352;149.036;2023-02-28T20:38:51;27.00;50.20
39695;DHT22;25367;-35.352;149.036;2023-02-28T20:41:21;26.90;50.00
39695;DHT22;25367;-35.352;149.036;2023-02-28T20:43:54;27.00;50.10
39695;DHT22;25367;-35.352;149.036;2023-02-28T20:46:26;26.90;50.00
39695;DHT22;25367;-35.352;149.036;2023-02-28T20:48:55;26.90;50.10
39695;DHT22;25367;-35.352;149.036;2023-02-28T20:51:24;26.90;50.10
39695;DHT22;25367;-35.352;149.036;2023-02-28T20:53:54;26.90;50.20
39695;DHT22;25367;-35.352;149.036;2023-02-28T20:56:24;26.90;50.20
39695;DHT22;25367;-35.352;149.036;2023-02-28T20:58:54;26.90;50.20
39695;DHT22;25367;-35.352;149.036;2023-02-28T21:01:28;26.80;50.20
39695;DHT22;25367;-35.352;149.036;2023-02-28T21:03:58;26.80;50.30
39695;DHT22;25367;-35.352;149.036;2023-02-28T21:06:30;26.80;50.40
39695;DHT22;25367;-35.352;149.036;2023-02-28T21:09:02;26.80;50.30
39695;DHT22;25367;-35.352;149.036;2023-02-28T21:11:33;26.80;50.30
39695;DHT22;25367;-35.352;149.036;2023-02-28T21:14:04;26.70;50.20
39695;DHT22;25367;-35.352;149.036;2023-02-28T21:16:37;26.70;50.30
39695;DHT22;25367;-35.352;149.036;2023-02-28T21:19:06;26.70;50.30
39695;DHT22;25367;-35.352;149.036;2023-02-28T21:21:37;26.70;50.20
39695;DHT22;25367;-35.352;149.036;2023-02-28T21:24:08;26.70;50.20
39695;DHT22;25367;-35.352;149.036;2023-02-28T21:26:39;26.70;50.10
39695;DHT22;25367;-35.352;149.036;2023-02-28T21:29:08;26.70;50.20
39695;DHT22;25367;-35.352;149.036;2023-02-28T21:31:40;26.70;50.20
39695;DHT22;25367;-35.352;149.036;2023-02-28T21:34:11;26.60;50.10
39695;DHT22;25367;-35.352;149.036;2023-02-28T21:36:42;26.60;50.20
39695;DHT22;25367;-35.352;149.036;2023-02-28T21:39:14;26.60;50.20
39695;DHT22;25367;-35.352;149.036;2023-02-28T21:41:44;26.60;50.30
39695;DHT22;25367;-35.352;149.036;2023-02-28T21:44:14;26.50;50.30
39695;DHT22;25367;-35.352;149.036;2023-02-28T21:46:48;26.50;50.30
39695;DHT22;25367;-35.352;149.036;2023-02-28T21:49:17;26.50;50.30
39695;DHT22;25367;-35.352;149.036;2023-02-28T21:51:47;26.50;50.40
39695;DHT22;25367;-35.352;149.036;2023-02-28T21:54:16;26.50;50.50
39695;DHT22;25367;-35.352;149.036;2023-02-28T21:56:46;26.50;50.50
39695;DHT22;25367;-35.352;149.036;2023-02-28T21:59:15;26.50;50.50
39695;DHT22;25367;-35.352;149.036;2023-02-28T22:01:49;26.50;50.60
39695;DHT22;25367;-35.352;149.036;2023-02-28T22:04:19;26.50;50.60
39695;DHT22;25367;-35.352;149.036;2023-02-28T22:06:49;26.50;50.70
39695;DHT22;25367;-35.352;149.036;2023-02-28T22:09:19;26.50;50.90
39695;DHT22;25367;-35.352;149.036;2023-02-28T22:11:49;26.50;50.80
39695;DHT22;25367;-35.352;149.036;2023-02-28T22:14:18;26.50;50.80
39695;DHT22;25367;-35.352;149.036;2023-02-28T22:16:51;26.50;50.90
39695;DHT22;25367;-35.352;149.036;2023-02-28T22:19:22;26.50;50.80
39695;DHT22;25367;-35.352;149.036;2023-02-28T22:21:51;26.40;50.80
39695;DHT22;25367;-35.352;149.036;2023-02-28T22:24:21;26.50;50.90
39695;DHT22;25367;-35.352;149.036;2023-02-28T22:26:50;26.40;50.80
39695;DHT22;25367;-35.352;149.036;2023-02-28T22:29:20;26.40;50.80
39695;DHT22;25367;-35.352;149.036;2023-02-28T22:31:51;26.40;50.80
39695;DHT22;25367;-35.352;149.036;2023-02-28T22:34:21;26.40;50.80
39695;DHT22;25367;-35.352;149.036;2023-02-28T22:36:51;26.40;50.80
39695;DHT22;25367;-35.352;149.036;2023-02-28T22:39:20;26.40;50.70
39695;DHT22;25367;-35.352;149.036;2023-02-28T22:41:50;26.40;50.70
39695;DHT22;25367;-35.352;149.036;2023-02-28T22:44:22;26.40;50.70
39695;DHT22;25367;-35.352;149.036;2023-02-28T22:46:55;26.40;50.80
39695;DHT22;25367;-35.352;149.036;2023-02-28T22:49:24;26.40;50.70
39695;DHT22;25367;-35.352;149.036;2023-02-28T22:51:54;26.40;50.70
39695;DHT22;25367;-35.352;149.036;2023-02-28T22:54:23;26.40;50.70
39695;DHT22;25367;-35.352;149.036;2023-02-28T22:56:53;26.40;50.80
39695;DHT22;25367;-35.352;149.036;2023-02-28T22:59:22;26.40;50.70
39695;DHT22;25367;-35.352;149.036;2023-02-28T23:01:54;26.40;50.70
39695;DHT22;25367;-35.352;149.036;2023-02-28T23:04:23;26.40;50.70
39695;DHT22;25367;-35.352;149.036;2023-02-28T23:06:53;26.40;50.70
39695;DHT22;25367;-35.352;149.036;2023-02-28T23:09:22;26.40;50.80
39695;DHT22;25367;-35.352;149.036;2023-02-28T23:11:52;26.40;50.70
39695;DHT22;25367;-35.352;149.036;2023-02-28T23:14:22;26.30;50.70
39695;DHT22;25367;-35.352;149.036;2023-02-28T23:16:55;26.40;50.80
39695;DHT22;25367;-35.352;149.036;2023-02-28T23:19:26;26.40;50.90
39695;DHT22;25367;-35.352;149.036;2023-02-28T23:21:56;26.40;50.90
39695;DHT22;25367;-35.352;149.036;2023-02-28T23:24:28;26.40;50.90
39695;DHT22;25367;-35.352;149.036;2023-02-28T23:26:59;26.40;50.90
39695;DHT22;25367;-35.352;149.036;2023-02-28T23:29:28;26.40;50.90
39695;DHT22;25367;-35.352;149.036;2023-02-28T23:32:00;26.40;50.90
39695;DHT22;25367;-35.352;149.036;2023-02-28T23:34:29;26.40;50.90
39695;DHT22;25367;-35.352;149.036;2023-02-28T23:36:59;26.40;51.00
39695;DHT22;25367;-35.352;149.036;2023-02-28T23:39:30;26.50;51.00
39695;DHT22;25367;-35.352;149.036;2023-02-28T23:41:59;26.40;50.90
39695;DHT22;25367;-35.352;149.036;2023-02-28T23:44:29;26.50;51.00
39695;DHT22;25367;-35.352;149.036;2023-02-28T23:47:01;26.50;51.00
39695;DHT22;25367;-35.352;149.036;2023-02-28T23:49:30;26.50;50.90
39695;DHT22;25367;-35.352;149.036;2023-02-28T23:51:59;26.50;50.80
39695;DHT22;25367;-35.352;149.036;2023-02-28T23:54:29;26.50;51.40
39695;DHT22;25367;-35.352;149.036;2023-02-28T23:56:58;26.50;50.90
39695;DHT22;25367;-35.352;149.036;2023-02-28T23:59:28;26.60;50.80
